createdAt,value
2023-04-20T00:00:47.939Z,64.60
2023-04-20T00:03:25.697Z,64.70
2023-04-20T00:06:03.755Z,64.70
2023-04-20T00:08:48.700Z,64.90
2023-04-20T00:11:18.000Z,64.90
2023-04-20T00:13:53.020Z,65.00
2023-04-20T00:16:40.584Z,65.00
2023-04-20T00:19:14.637Z,64.90
2023-04-20T00:21:55.025Z,64.90
2023-04-20T00:24:29.041Z,64.80
2023-04-20T00:27:10.574Z,64.80
2023-04-20T00:29:44.339Z,64.70
2023-04-20T00:32:32.779Z,64.80
2023-04-20T00:35:03.977Z,64.80
2023-04-20T00:37:44.268Z,64.80
2023-04-20T00:40:22.020Z,64.90
2023-04-20T00:42:58.744Z,64.90
2023-04-20T00:45:29.711Z,64.90
2023-04-20T00:48:14.830Z,64.90
2023-04-20T00:50:53.416Z,64.90
2023-04-20T00:53:26.668Z,64.90
2023-04-20T00:56:05.534Z,64.90
2023-04-20T00:58:46.591Z,65.10
2023-04-20T01:01:18.118Z,65.20
2023-04-20T01:04:02.932Z,65.40
2023-04-20T01:06:39.113Z,65.50
2023-04-20T01:09:10.772Z,65.60
2023-04-20T01:11:49.947Z,65.60
2023-04-20T01:14:25.681Z,65.70
2023-04-20T01:16:58.834Z,65.90
2023-04-20T01:19:33.842Z,66.00
2023-04-20T01:22:08.253Z,66.10
2023-04-20T01:24:51.662Z,66.20
2023-04-20T01:27:26.637Z,66.30
2023-04-20T01:30:00.477Z,66.30
2023-04-20T01:32:37.748Z,66.30
2023-04-20T01:35:14.606Z,66.40
2023-04-20T01:37:44.503Z,66.40
2023-04-20T01:40:19.509Z,66.50
2023-04-20T01:42:54.569Z,66.60
2023-04-20T01:45:34.931Z,66.70
2023-04-20T01:48:05.127Z,66.80
2023-04-20T01:50:40.812Z,66.90
2023-04-20T01:53:13.906Z,67.00
2023-04-20T01:56:01.877Z,67.00
2023-04-20T01:58:32.036Z,67.10
2023-04-20T02:01:06.258Z,67.20
2023-04-20T02:03:44.448Z,67.20
2023-04-20T02:06:35.735Z,67.00
2023-04-20T02:09:15.072Z,67.00
2023-04-20T02:12:00.661Z,67.00
2023-04-20T02:14:41.581Z,67.10
2023-04-20T02:17:21.058Z,67.00
2023-04-20T02:20:01.181Z,67.10
2023-04-20T02:22:39.650Z,67.00
2023-04-20T02:25:26.499Z,66.90
2023-04-20T02:28:07.159Z,67.00
2023-04-20T02:30:36.660Z,67.00
2023-04-20T02:35:49.847Z,66.90
2023-04-20T02:38:20.364Z,66.90
2023-04-20T02:40:55.949Z,66.90
2023-04-20T02:43:31.310Z,66.90
2023-04-20T02:46:11.849Z,66.80
2023-04-20T02:48:53.326Z,66.80
2023-04-20T02:51:23.294Z,66.80
2023-04-20T02:53:56.596Z,66.80
2023-04-20T02:56:40.597Z,66.90
2023-04-20T02:59:20.947Z,67.00
2023-04-20T03:02:13.066Z,66.90
2023-04-20T03:04:45.139Z,66.90
2023-04-20T03:07:24.825Z,66.90
2023-04-20T03:09:57.251Z,67.00
2023-04-20T03:12:51.941Z,67.10
2023-04-20T03:15:36.820Z,67.10
2023-04-20T03:18:53.562Z,67.10
2023-04-20T03:21:26.457Z,67.10
2023-04-20T03:24:00.848Z,67.10
2023-04-20T03:26:43.639Z,67.10
2023-04-20T03:29:19.149Z,67.10
2023-04-20T03:32:00.437Z,67.10
2023-04-20T03:34:30.016Z,67.30
2023-04-20T03:37:15.421Z,67.30
2023-04-20T03:39:56.976Z,67.40
2023-04-20T03:42:38.378Z,67.40
2023-04-20T03:45:10.548Z,67.30
2023-04-20T03:47:46.742Z,67.30
2023-04-20T03:50:17.381Z,67.40
2023-04-20T03:52:54.687Z,67.40
2023-04-20T03:55:31.683Z,67.40
2023-04-20T03:58:08.294Z,67.50
2023-04-20T04:01:03.793Z,67.50
2023-04-20T04:03:50.616Z,67.60
2023-04-20T04:06:22.956Z,67.60
2023-04-20T04:08:54.935Z,67.70
2023-04-20T04:11:28.349Z,67.80
2023-04-20T04:14:08.920Z,67.80
2023-04-20T04:16:46.261Z,67.90
2023-04-20T04:19:21.082Z,67.90
2023-04-20T04:21:50.855Z,68.10
2023-04-20T04:24:25.935Z,68.20
2023-04-20T04:27:13.153Z,68.30
2023-04-20T04:29:52.895Z,68.30
2023-04-20T04:32:26.005Z,68.40
2023-04-20T04:35:06.101Z,68.50
2023-04-20T04:37:39.247Z,68.60
2023-04-20T04:40:16.885Z,68.70
2023-04-20T04:42:55.902Z,68.70
2023-04-20T04:45:29.514Z,68.70
2023-04-20T04:48:00.320Z,68.70
2023-04-20T04:50:40.094Z,68.70
2023-04-20T04:53:12.733Z,68.80
2023-04-20T04:55:48.015Z,68.80
2023-04-20T04:58:21.623Z,68.80
2023-04-20T05:00:52.429Z,68.80
2023-04-20T05:03:24.479Z,68.80
2023-04-20T05:06:16.550Z,69.50
2023-04-20T05:08:49.908Z,70.10
2023-04-20T05:11:32.190Z,69.80
2023-04-20T05:14:04.779Z,69.20
2023-04-20T05:16:35.460Z,68.00
2023-04-20T05:19:10.961Z,66.90
2023-04-20T05:21:46.490Z,65.90
2023-04-20T05:24:22.472Z,65.10
2023-04-20T05:26:52.614Z,64.50
2023-04-20T05:29:24.044Z,64.20
2023-04-20T05:32:00.744Z,63.60
2023-04-20T05:34:39.639Z,62.90
2023-04-20T05:37:19.480Z,60.00
2023-04-20T05:39:53.168Z,61.20
2023-04-20T05:42:27.446Z,62.90
2023-04-20T05:45:08.178Z,63.20
2023-04-20T05:47:44.159Z,61.70
2023-04-20T05:50:17.026Z,60.10
2023-04-20T05:52:57.789Z,60.00
2023-04-20T05:55:35.512Z,60.80
2023-04-20T05:58:06.658Z,61.50
2023-04-20T06:00:43.869Z,62.10
2023-04-20T06:03:17.842Z,62.80
2023-04-20T06:05:56.408Z,63.30
2023-04-20T06:08:36.117Z,63.80
2023-04-20T06:11:06.888Z,64.20
2023-04-20T06:13:41.213Z,64.50
2023-04-20T06:16:20.601Z,64.90
2023-04-20T06:18:54.819Z,65.40
2023-04-20T06:21:28.102Z,66.00
2023-04-20T06:24:05.820Z,66.10
2023-04-20T06:26:36.851Z,66.60
2023-04-20T06:29:07.756Z,66.70
2023-04-20T06:31:38.633Z,66.80
2023-04-20T06:34:08.964Z,67.00
2023-04-20T06:36:43.963Z,67.10
2023-04-20T06:39:21.803Z,67.20
2023-04-20T06:41:56.338Z,67.40
2023-04-20T06:44:34.563Z,67.70
2023-04-20T06:47:05.445Z,67.70
2023-04-20T06:49:44.489Z,67.90
2023-04-20T06:52:24.929Z,68.10
2023-04-20T06:55:17.287Z,68.20
2023-04-20T06:57:51.708Z,68.60
2023-04-20T07:00:32.595Z,68.40
2023-04-20T07:03:03.205Z,68.60
2023-04-20T07:05:34.701Z,68.80
2023-04-20T07:08:06.777Z,68.80
2023-04-20T07:10:52.499Z,68.80
2023-04-20T07:13:31.472Z,68.80
2023-04-20T07:16:04.578Z,68.80
2023-04-20T07:18:35.876Z,68.90
2023-04-20T07:21:11.959Z,69.00
2023-04-20T07:23:48.321Z,69.00
2023-04-20T07:26:23.797Z,69.10
2023-04-20T07:29:01.297Z,69.10
2023-04-20T07:31:35.861Z,69.20
2023-04-20T07:34:09.536Z,69.30
2023-04-20T07:36:39.191Z,69.40
2023-04-20T07:39:15.740Z,69.40
2023-04-20T07:41:54.322Z,69.60
2023-04-20T07:44:34.384Z,69.40
2023-04-20T07:47:08.321Z,69.50
2023-04-20T07:49:41.576Z,69.50
2023-04-20T07:52:16.842Z,69.50
2023-04-20T07:54:48.042Z,69.50
2023-04-20T07:57:28.132Z,69.50
2023-04-20T08:00:02.752Z,69.50
2023-04-20T08:02:57.182Z,69.40
2023-04-20T08:05:36.104Z,69.40
2023-04-20T08:08:13.503Z,69.50
2023-04-20T08:10:52.797Z,69.60
2023-04-20T08:13:24.004Z,69.50
2023-04-20T08:15:56.873Z,69.50
2023-04-20T08:18:34.620Z,69.60
2023-04-20T08:21:04.697Z,69.60
2023-04-20T08:23:39.067Z,69.30
2023-04-20T08:26:10.188Z,69.30
2023-04-20T08:28:49.950Z,69.30
2023-04-20T08:31:28.305Z,69.30
2023-04-20T08:34:03.927Z,69.20
2023-04-20T08:36:40.890Z,69.20
2023-04-20T08:39:15.851Z,69.10
2023-04-20T08:41:47.131Z,69.00
2023-04-20T08:44:22.119Z,68.80
2023-04-20T08:46:59.906Z,68.80
2023-04-20T08:49:40.038Z,68.90
2023-04-20T08:52:15.451Z,68.90
2023-04-20T08:54:57.874Z,69.00
2023-04-20T08:57:29.021Z,69.10
2023-04-20T09:00:03.083Z,68.80
2023-04-20T09:02:37.015Z,68.70
2023-04-20T09:05:09.287Z,68.60
2023-04-20T09:07:42.384Z,68.40
2023-04-20T09:10:19.237Z,68.40
2023-04-20T09:12:50.272Z,68.10
2023-04-20T09:15:39.129Z,67.80
2023-04-20T09:18:21.336Z,67.40
2023-04-20T09:21:02.014Z,67.60
2023-04-20T09:23:32.729Z,67.40
2023-04-20T09:26:11.786Z,67.60
2023-04-20T09:28:49.103Z,67.20
2023-04-20T09:31:37.298Z,67.10
2023-04-20T09:34:08.429Z,67.00
2023-04-20T09:36:45.065Z,67.00
2023-04-20T09:39:20.292Z,66.90
2023-04-20T09:41:57.046Z,66.40
2023-04-20T09:44:34.869Z,66.00
2023-04-20T09:47:23.870Z,66.00
2023-04-20T09:50:00.042Z,65.70
2023-04-20T09:52:37.813Z,65.30
2023-04-20T09:55:16.192Z,65.30
2023-04-20T09:57:46.678Z,65.10
2023-04-20T10:00:19.167Z,65.00
2023-04-20T10:02:57.161Z,64.90
2023-04-20T10:05:39.967Z,64.80
2023-04-20T10:08:20.474Z,64.90
2023-04-20T10:10:55.892Z,64.80
2023-04-20T10:13:40.235Z,64.80
2023-04-20T10:16:23.923Z,64.60
2023-04-20T10:19:16.505Z,64.70
2023-04-20T10:21:54.447Z,64.60
2023-04-20T10:24:39.059Z,64.70
2023-04-20T10:27:23.401Z,64.40
2023-04-20T10:29:59.121Z,64.40
2023-04-20T10:32:29.786Z,64.40
2023-04-20T10:35:19.285Z,64.20
2023-04-20T10:37:57.290Z,64.20
2023-04-20T10:40:28.034Z,64.20
2023-04-20T10:43:07.215Z,64.20
2023-04-20T10:45:40.143Z,64.00
2023-04-20T10:48:34.990Z,63.90
2023-04-20T10:51:17.072Z,64.00
2023-04-20T10:53:45.422Z,64.00
2023-04-20T10:56:26.250Z,64.00
2023-04-20T10:58:55.286Z,64.00
2023-04-20T11:01:28.945Z,63.90
2023-04-20T11:04:06.851Z,63.70
2023-04-20T11:06:42.832Z,63.40
2023-04-20T11:09:24.227Z,63.00
2023-04-20T11:12:08.739Z,63.00
2023-04-20T11:14:56.462Z,63.00
2023-04-20T11:17:42.428Z,63.00
2023-04-20T11:20:23.596Z,63.00
2023-04-20T11:23:03.950Z,63.00
2023-04-20T11:25:43.156Z,62.80
2023-04-20T11:28:18.572Z,62.60
2023-04-20T11:30:58.589Z,62.10
2023-04-20T11:33:36.867Z,62.10
2023-04-20T11:36:21.996Z,62.00
2023-04-20T11:38:59.850Z,61.80
2023-04-20T11:41:43.919Z,61.80
2023-04-20T11:44:17.606Z,61.70
2023-04-20T11:46:48.461Z,61.50
2023-04-20T11:49:25.200Z,61.20
2023-04-20T11:51:59.970Z,60.70
2023-04-20T11:54:43.351Z,60.40
2023-04-20T11:57:24.557Z,60.00
2023-04-20T11:59:55.345Z,60.10
2023-04-20T12:02:32.139Z,60.00
2023-04-20T12:05:10.665Z,59.90
2023-04-20T12:07:43.571Z,59.60
2023-04-20T12:10:20.449Z,59.50
2023-04-20T12:12:54.549Z,59.40
2023-04-20T12:15:26.792Z,59.20
2023-04-20T12:17:59.963Z,59.20
2023-04-20T12:20:33.928Z,59.10
2023-04-20T12:23:13.065Z,58.90
2023-04-20T12:25:51.763Z,58.90
2023-04-20T12:28:23.102Z,58.70
2023-04-20T12:30:56.052Z,58.80
2023-04-20T12:33:27.341Z,58.70
2023-04-20T12:36:05.415Z,58.30
2023-04-20T12:38:45.782Z,58.40
2023-04-20T12:41:30.828Z,58.60
2023-04-20T12:44:06.174Z,58.60
2023-04-20T12:46:42.179Z,58.60
2023-04-20T12:49:13.746Z,58.40
2023-04-20T12:51:45.037Z,58.30
2023-04-20T12:54:14.895Z,58.20
2023-04-20T12:56:51.702Z,58.20
2023-04-20T12:59:22.892Z,58.10
2023-04-20T13:02:02.603Z,58.20
2023-04-20T13:04:38.794Z,58.20
2023-04-20T13:07:12.617Z,58.00
2023-04-20T13:09:49.457Z,58.00
2023-04-20T13:12:23.924Z,57.80
2023-04-20T13:15:03.127Z,57.50
2023-04-20T13:17:33.435Z,57.60
2023-04-20T13:20:08.697Z,57.70
2023-04-20T13:22:54.499Z,57.80
2023-04-20T13:25:32.141Z,58.00
2023-04-20T13:28:14.895Z,58.00
2023-04-20T13:30:46.315Z,58.30
2023-04-20T13:33:24.804Z,58.40
2023-04-20T13:36:04.373Z,58.60
2023-04-20T13:38:39.599Z,58.90
2023-04-20T13:41:15.872Z,59.00
2023-04-20T13:43:56.006Z,59.20
2023-04-20T13:46:26.986Z,59.40
2023-04-20T13:49:01.789Z,59.80
2023-04-20T13:51:37.021Z,60.30
2023-04-20T13:54:08.782Z,60.60
2023-04-20T13:56:43.096Z,60.80
2023-04-20T13:59:13.268Z,61.10
2023-04-20T14:01:51.008Z,61.50
2023-04-20T14:04:31.316Z,61.60
2023-04-20T14:07:01.367Z,61.90
2023-04-20T14:09:38.206Z,62.00
2023-04-20T14:12:12.467Z,62.30
2023-04-20T14:15:01.742Z,62.60
2023-04-20T14:17:33.874Z,62.90
2023-04-20T14:20:12.382Z,62.90
2023-04-20T14:22:43.655Z,63.10
2023-04-20T14:25:23.384Z,63.30
2023-04-20T14:27:54.843Z,63.40
2023-04-20T14:30:32.617Z,63.60
2023-04-20T14:33:07.952Z,63.90
2023-04-20T14:35:42.218Z,63.90
2023-04-20T14:38:20.628Z,64.10
2023-04-20T14:40:57.902Z,64.20
2023-04-20T14:43:30.875Z,64.40
2023-04-20T14:46:08.884Z,64.50
2023-04-20T14:48:40.938Z,64.60
2023-04-20T14:51:11.883Z,64.60
2023-04-20T14:53:48.409Z,64.70
2023-04-20T14:56:20.743Z,64.90
2023-04-20T14:58:54.377Z,64.90
2023-04-20T15:01:34.319Z,65.00
2023-04-20T15:04:10.174Z,65.20
2023-04-20T15:06:43.923Z,65.30
2023-04-20T15:09:14.183Z,65.30
2023-04-20T15:11:45.620Z,65.30
2023-04-20T15:14:26.503Z,65.30
2023-04-20T15:17:04.169Z,65.40
2023-04-20T15:19:40.018Z,65.50
2023-04-20T15:22:12.241Z,65.60
2023-04-20T15:24:51.553Z,65.70
2023-04-20T15:27:27.043Z,65.80
2023-04-20T15:30:21.093Z,66.00
2023-04-20T15:32:55.586Z,66.00
2023-04-20T15:35:40.089Z,66.00
2023-04-20T15:38:10.747Z,66.20
2023-04-20T15:40:42.807Z,66.40
2023-04-20T15:43:17.219Z,66.50
2023-04-20T15:45:54.552Z,66.90
2023-04-20T15:48:27.340Z,67.00
2023-04-20T15:51:12.631Z,67.30
2023-04-20T15:53:47.558Z,67.50
2023-04-20T15:56:26.568Z,67.50
2023-04-20T15:59:00.164Z,67.70
2023-04-20T16:01:32.486Z,68.00
2023-04-20T16:04:10.485Z,68.00
2023-04-20T16:06:44.192Z,68.10
2023-04-20T16:09:21.753Z,68.30
2023-04-20T16:11:59.932Z,68.40
2023-04-20T16:14:39.393Z,68.50
2023-04-20T16:17:12.520Z,68.60
2023-04-20T16:19:49.862Z,68.70
2023-04-20T16:22:18.336Z,68.90
2023-04-20T16:24:52.283Z,69.00
2023-04-20T16:27:31.976Z,69.00
2023-04-20T16:30:02.775Z,69.30
2023-04-20T16:32:32.233Z,69.60
2023-04-20T16:35:04.397Z,69.90
2023-04-20T16:37:40.290Z,70.20
2023-04-20T16:40:16.461Z,70.10
2023-04-20T16:42:54.957Z,70.20
2023-04-20T16:45:26.955Z,70.20
2023-04-20T16:48:00.802Z,70.30
2023-04-20T16:50:42.260Z,70.30
2023-04-20T16:53:17.176Z,70.30
2023-04-20T16:55:53.610Z,70.40
2023-04-20T16:58:26.170Z,70.60
2023-04-20T17:00:59.843Z,70.60
2023-04-20T17:03:33.868Z,70.60
2023-04-20T17:06:08.597Z,70.60
2023-04-20T17:08:49.790Z,70.60
2023-04-20T17:11:23.478Z,70.60
2023-04-20T17:13:54.978Z,70.60
2023-04-20T17:16:32.394Z,70.70
2023-04-20T17:19:07.726Z,70.60
2023-04-20T17:21:43.169Z,70.80
2023-04-20T17:24:13.867Z,70.80
2023-04-20T17:26:44.606Z,70.90
2023-04-20T17:29:17.564Z,70.90
2023-04-20T17:31:59.256Z,71.10
2023-04-20T17:34:33.911Z,71.20
2023-04-20T17:37:12.473Z,71.30
2023-04-20T17:39:46.051Z,71.50
2023-04-20T17:42:19.704Z,71.50
2023-04-20T17:44:53.184Z,71.60
2023-04-20T17:47:27.143Z,71.60
2023-04-20T17:50:02.643Z,71.60
2023-04-20T17:52:36.588Z,71.70
2023-04-20T17:55:19.609Z,71.80
2023-04-20T17:57:53.062Z,71.90
2023-04-20T18:00:32.347Z,71.90
2023-04-20T18:03:09.459Z,72.00
2023-04-20T18:05:38.919Z,72.10
2023-04-20T18:08:14.477Z,72.10
2023-04-20T18:10:42.989Z,72.20
2023-04-20T18:13:13.757Z,72.30
2023-04-20T18:15:59.308Z,72.30
2023-04-20T18:18:38.570Z,72.40
2023-04-20T18:21:15.430Z,72.50
2023-04-20T18:23:58.544Z,72.70
2023-04-20T18:26:34.970Z,72.90
2023-04-20T18:29:06.524Z,72.90
2023-04-20T18:31:43.917Z,73.00
2023-04-20T18:34:21.329Z,73.10
2023-04-20T18:36:58.561Z,73.30
2023-04-20T18:39:46.475Z,73.40
2023-04-20T18:42:23.643Z,73.50
2023-04-20T18:45:02.224Z,73.70
2023-04-20T18:47:50.224Z,73.80
2023-04-20T18:50:27.870Z,74.00
2023-04-20T18:53:10.055Z,74.10
2023-04-20T18:55:54.756Z,74.10
2023-04-20T18:58:34.365Z,74.30
2023-04-20T19:01:23.148Z,74.30
2023-04-20T19:03:55.878Z,74.40
2023-04-20T19:06:39.089Z,74.50
2023-04-20T19:09:20.584Z,74.60
2023-04-20T19:12:00.515Z,74.60
2023-04-20T19:14:34.947Z,74.70
2023-04-20T19:17:07.768Z,74.80
2023-04-20T19:19:45.965Z,74.90
2023-04-20T19:22:22.276Z,75.00
2023-04-20T19:24:57.990Z,75.10
2023-04-20T19:27:38.332Z,75.20
2023-04-20T19:30:18.299Z,75.40
2023-04-20T19:32:49.957Z,75.40
2023-04-20T19:35:20.834Z,75.40
2023-04-20T19:38:03.466Z,75.50
2023-04-20T19:40:45.348Z,75.50
2023-04-20T19:43:24.578Z,75.60
2023-04-20T19:45:57.079Z,75.70
2023-04-20T19:48:28.284Z,75.70
2023-04-20T19:51:08.698Z,75.80
2023-04-20T19:53:43.035Z,75.90
2023-04-20T19:56:14.498Z,76.00
2023-04-20T19:58:53.852Z,76.00
2023-04-20T20:01:28.740Z,76.10
2023-04-20T20:04:03.487Z,76.10
2023-04-20T20:06:46.414Z,76.10
2023-04-20T20:09:28.856Z,76.20
2023-04-20T20:12:04.460Z,76.30
2023-04-20T20:14:47.827Z,76.30
2023-04-20T20:17:22.140Z,76.40
2023-04-20T20:19:54.455Z,76.40
2023-04-20T20:22:31.422Z,76.50
2023-04-20T20:25:15.846Z,76.50
2023-04-20T20:27:55.616Z,76.60
2023-04-20T20:30:29.652Z,76.60
2023-04-20T20:33:08.962Z,76.70
2023-04-20T20:35:44.573Z,76.80
2023-04-20T20:38:17.924Z,76.80
2023-04-20T20:40:49.680Z,76.90
2023-04-20T20:43:23.634Z,76.90
2023-04-20T20:45:58.546Z,77.10
2023-04-20T20:48:30.715Z,77.10
2023-04-20T20:51:01.314Z,77.20
2023-04-20T20:53:57.980Z,77.20
2023-04-20T20:56:29.312Z,77.20
2023-04-20T20:59:05.281Z,77.30
2023-04-20T21:01:41.713Z,77.30
2023-04-20T21:04:15.266Z,77.40
2023-04-20T21:06:48.029Z,77.30
2023-04-20T21:09:25.418Z,77.30
2023-04-20T21:12:05.559Z,77.30
2023-04-20T21:14:37.895Z,77.40
2023-04-20T21:17:15.217Z,77.50
2023-04-20T21:19:49.437Z,77.70
2023-04-20T21:22:20.109Z,77.70
2023-04-20T21:24:53.223Z,77.80
2023-04-20T21:27:26.381Z,77.80
2023-04-20T21:29:59.724Z,77.90
2023-04-20T21:32:38.367Z,78.00
2023-04-20T21:35:10.146Z,78.10
2023-04-20T21:37:40.418Z,78.10
2023-04-20T21:40:11.632Z,78.10
2023-04-20T21:42:56.234Z,78.20
2023-04-20T21:45:36.278Z,78.40
2023-04-20T21:48:10.021Z,78.50
2023-04-20T21:50:42.976Z,78.40
2023-04-20T21:53:22.649Z,78.50
2023-04-20T21:56:02.863Z,78.60
2023-04-20T21:58:37.618Z,78.70
2023-04-20T22:01:11.783Z,78.80
2023-04-20T22:03:55.355Z,78.80
2023-04-20T22:06:28.125Z,78.80
2023-04-20T22:09:07.070Z,78.80
2023-04-20T22:11:43.461Z,78.90
2023-04-20T22:14:15.398Z,79.00
2023-04-20T22:16:52.173Z,79.20
2023-04-20T22:19:32.539Z,79.30
2023-04-20T22:22:04.450Z,79.40
2023-04-20T22:24:39.998Z,79.50
2023-04-20T22:27:11.027Z,79.60
2023-04-20T22:29:42.227Z,79.60
2023-04-20T22:32:14.060Z,79.60
2023-04-20T22:34:47.975Z,79.70
2023-04-20T22:37:21.303Z,79.80
2023-04-20T22:39:56.521Z,79.90
2023-04-20T22:42:26.976Z,79.70
2023-04-20T22:45:06.599Z,79.70
2023-04-20T22:47:45.946Z,79.80
2023-04-20T22:50:34.247Z,79.90
2023-04-20T22:53:12.739Z,80.00
2023-04-20T22:55:46.422Z,79.80
2023-04-20T22:58:21.751Z,79.80
2023-04-20T23:00:56.172Z,80.00
2023-04-20T23:03:27.417Z,80.00
2023-04-20T23:06:07.399Z,80.00
2023-04-20T23:08:41.475Z,80.00
2023-04-20T23:11:23.093Z,80.00
2023-04-20T23:13:58.646Z,80.00
2023-04-20T23:16:41.101Z,80.00
2023-04-20T23:19:10.185Z,80.00
2023-04-20T23:21:58.764Z,80.10
2023-04-20T23:24:42.830Z,80.10
2023-04-20T23:27:20.831Z,80.10
2023-04-20T23:29:51.308Z,80.20
2023-04-20T23:32:29.570Z,80.20
2023-04-20T23:35:09.153Z,80.20
2023-04-20T23:37:44.974Z,80.20
2023-04-20T23:40:17.893Z,80.20
2023-04-20T23:42:52.276Z,80.10
2023-04-20T23:45:29.570Z,80.20
2023-04-20T23:48:04.627Z,80.20
2023-04-20T23:50:44.823Z,80.20
2023-04-20T23:53:23.160Z,80.20
2023-04-20T23:56:03.430Z,80.20
2023-04-20T23:58:33.425Z,80.20
